createdAt,value
2019-04-14T00:01:44.078Z,81.41
2019-04-14T00:04:16.125Z,81.56
2019-04-14T00:06:44.156Z,81.74
2019-04-14T00:09:14.025Z,82.11
2019-04-14T00:11:45.876Z,81.96
2019-04-14T00:14:14.179Z,82.36
2019-04-14T00:16:42.431Z,81.85
2019-04-14T00:19:10.799Z,81.68
2019-04-14T00:21:38.933Z,81.75
2019-04-14T00:24:07.288Z,81.80
2019-04-14T00:26:35.632Z,82.39
2019-04-14T00:29:04.620Z,82.23
2019-04-14T00:31:32.885Z,82.09
2019-04-14T00:34:05.140Z,81.50
2019-04-14T00:36:34.818Z,81.37
2019-04-14T00:39:03.682Z,81.33
2019-04-14T00:41:41.354Z,81.50
2019-04-14T00:44:03.636Z,81.48
2019-04-14T00:46:38.799Z,81.47
2019-04-14T00:49:05.599Z,81.32
2019-04-14T00:51:33.140Z,81.50
2019-04-14T00:54:00.285Z,81.55
2019-04-14T00:56:27.937Z,81.51
2019-04-14T00:58:56.022Z,81.54
2019-04-14T01:01:24.291Z,81.56
2019-04-14T01:03:52.559Z,81.48
2019-04-14T01:06:20.701Z,81.60
2019-04-14T01:08:48.883Z,81.58
2019-04-14T01:11:16.028Z,81.51
2019-04-14T01:13:43.957Z,81.68
2019-04-14T01:16:15.516Z,81.75
2019-04-14T01:18:40.768Z,81.65
2019-04-14T01:21:08.822Z,81.74
2019-04-14T01:23:36.877Z,81.80
2019-04-14T01:26:05.034Z,81.78
2019-04-14T01:28:32.995Z,81.81
2019-04-14T01:31:01.088Z,81.81
2019-04-14T01:33:29.307Z,81.77
2019-04-14T01:35:57.416Z,81.81
2019-04-14T01:38:25.440Z,81.81
2019-04-14T01:40:53.160Z,81.75
2019-04-14T01:43:21.265Z,81.77
2019-04-14T01:46:00.620Z,81.82
2019-04-14T01:48:17.211Z,81.87
2019-04-14T01:50:56.196Z,81.73
2019-04-14T01:53:35.717Z,81.71
2019-04-14T01:56:23.281Z,81.76
2019-04-14T01:58:53.409Z,81.81
2019-04-14T02:01:23.864Z,81.82
2019-04-14T02:03:51.937Z,81.82
2019-04-14T02:06:20.185Z,81.77
2019-04-14T02:08:48.535Z,81.94
2019-04-14T02:11:15.882Z,81.82
2019-04-14T02:13:44.015Z,81.85
2019-04-14T02:16:21.888Z,81.88
2019-04-14T02:18:40.572Z,81.97
2019-04-14T02:21:08.532Z,82.18
2019-04-14T02:23:36.585Z,82.01
2019-04-14T02:26:04.688Z,82.01
2019-04-14T02:28:33.067Z,82.03
2019-04-14T02:31:12.986Z,82.00
2019-04-14T02:33:50.369Z,82.23
2019-04-14T02:36:32.550Z,82.43
2019-04-14T02:41:32.874Z,82.49
2019-04-14T02:46:22.007Z,82.46
2019-04-14T02:48:52.948Z,82.45
2019-04-14T02:51:19.385Z,82.45
2019-04-14T02:53:54.435Z,83.09
2019-04-14T02:56:22.328Z,82.96
2019-04-14T02:58:52.389Z,83.10
2019-04-14T03:01:27.544Z,82.67
2019-04-14T03:03:43.724Z,82.70
2019-04-14T03:08:45.686Z,82.64
2019-04-14T03:11:11.681Z,82.31
2019-04-14T03:13:45.022Z,82.45
2019-04-14T03:18:44.678Z,81.61
2019-04-14T03:24:09.341Z,82.06
2019-04-14T03:26:49.923Z,81.95
2019-04-14T03:29:36.765Z,82.23
2019-04-14T03:34:33.799Z,82.13
2019-04-14T03:39:26.844Z,81.58
2019-04-14T03:41:45.599Z,81.33
2019-04-14T03:44:21.288Z,80.81
2019-04-14T03:49:14.130Z,80.00
2019-04-14T03:54:03.638Z,79.63
2019-04-14T03:56:49.005Z,79.63
2019-04-14T03:59:17.552Z,78.94
2019-04-14T04:01:45.703Z,78.54
2019-04-14T04:04:13.943Z,78.19
2019-04-14T04:06:42.163Z,77.58
2019-04-14T04:09:10.432Z,77.62
2019-04-14T04:11:38.923Z,77.27
2019-04-14T04:14:05.998Z,77.03
2019-04-14T04:16:35.531Z,77.22
2019-04-14T04:19:13.011Z,76.96
2019-04-14T04:21:57.425Z,76.58
2019-04-14T04:24:43.286Z,76.68
2019-04-14T04:27:29.030Z,76.68
2019-04-14T04:30:10.238Z,76.02
2019-04-14T04:32:44.948Z,75.86
2019-04-14T04:35:32.565Z,76.43
2019-04-14T04:38:07.378Z,77.72
2019-04-14T04:40:35.301Z,77.44
2019-04-14T04:43:03.716Z,76.79
2019-04-14T04:45:30.648Z,77.08
2019-04-14T04:47:57.740Z,77.46
2019-04-14T04:50:26.003Z,77.07
2019-04-14T04:52:54.002Z,76.97
2019-04-14T04:55:22.002Z,75.89
2019-04-14T04:57:50.176Z,75.82
2019-04-14T05:00:17.853Z,75.81
2019-04-14T05:02:46.049Z,76.13
2019-04-14T05:05:51.396Z,76.08
2019-04-14T05:08:19.549Z,76.99
2019-04-14T05:10:48.658Z,76.77
2019-04-14T05:13:16.163Z,77.24
2019-04-14T05:15:45.081Z,76.77
2019-04-14T05:18:13.902Z,76.55
2019-04-14T05:20:41.955Z,76.14
2019-04-14T05:23:10.128Z,75.61
2019-04-14T05:25:37.101Z,75.86
2019-04-14T05:28:04.788Z,75.75
2019-04-14T05:30:32.881Z,74.92
2019-04-14T05:33:00.914Z,74.78
2019-04-14T05:35:29.097Z,74.79
2019-04-14T05:37:57.208Z,74.17
2019-04-14T05:40:25.527Z,74.05
2019-04-14T05:42:53.684Z,72.36
2019-04-14T05:45:21.914Z,70.19
2019-04-14T05:47:50.115Z,70.36
2019-04-14T05:50:18.149Z,69.74
2019-04-14T05:52:45.203Z,70.69
2019-04-14T05:55:13.385Z,70.76
2019-04-14T05:57:41.640Z,71.25
2019-04-14T06:00:10.965Z,69.80
2019-04-14T06:02:38.066Z,69.98
2019-04-14T06:05:06.442Z,68.25
2019-04-14T06:07:33.644Z,69.44
2019-04-14T06:10:00.656Z,69.94
2019-04-14T06:12:27.577Z,68.88
2019-04-14T06:14:54.524Z,68.59
2019-04-14T06:17:23.348Z,69.70
2019-04-14T06:19:50.326Z,70.79
2019-04-14T06:22:17.349Z,69.69
2019-04-14T06:24:44.133Z,66.28
2019-04-14T06:27:10.984Z,66.83
2019-04-14T06:29:37.919Z,67.37
2019-04-14T06:32:11.414Z,65.37
2019-04-14T06:34:57.251Z,65.81
2019-04-14T06:37:26.408Z,63.84
2019-04-14T06:39:55.553Z,62.87
2019-04-14T06:42:22.402Z,63.82
2019-04-14T06:44:49.218Z,62.87
2019-04-14T06:47:16.042Z,64.79
2019-04-14T06:49:48.801Z,63.70
2019-04-14T06:52:12.104Z,62.20
2019-04-14T06:54:40.527Z,60.57
2019-04-14T06:57:07.653Z,57.88
2019-04-14T06:59:34.491Z,58.81
2019-04-14T07:02:01.866Z,58.08
2019-04-14T07:04:29.089Z,57.70
2019-04-14T07:06:55.869Z,57.98
2019-04-14T07:09:22.773Z,58.22
2019-04-14T07:11:49.719Z,59.52
2019-04-14T07:14:16.583Z,57.73
2019-04-14T07:16:43.525Z,58.67
2019-04-14T07:19:10.565Z,57.60
2019-04-14T07:21:37.514Z,57.57
2019-04-14T07:24:04.724Z,57.16
2019-04-14T07:26:31.754Z,59.76
2019-04-14T07:28:58.867Z,58.56
2019-04-14T07:31:44.495Z,58.60
2019-04-14T07:34:25.696Z,58.22
2019-04-14T07:36:54.503Z,58.08
2019-04-14T07:39:31.919Z,58.86
2019-04-14T07:42:16.033Z,57.82
2019-04-14T07:45:01.538Z,57.34
2019-04-14T07:47:36.210Z,56.54
2019-04-14T07:50:21.861Z,58.42
2019-04-14T07:52:50.975Z,56.35
2019-04-14T07:55:19.853Z,56.22
2019-04-14T07:57:54.893Z,54.35
2019-04-14T08:00:31.567Z,52.87
2019-04-14T08:03:04.129Z,52.63
2019-04-14T08:05:32.884Z,51.33
2019-04-14T08:07:59.859Z,51.42
2019-04-14T08:10:26.715Z,51.71
2019-04-14T08:12:53.696Z,50.84
2019-04-14T08:15:20.661Z,53.44
2019-04-14T08:17:47.626Z,52.77
2019-04-14T08:20:26.416Z,51.91
2019-04-14T08:22:43.564Z,50.26
2019-04-14T08:25:10.550Z,50.87
2019-04-14T08:27:37.531Z,48.68
2019-04-14T08:30:07.407Z,49.15
2019-04-14T08:32:34.338Z,48.78
2019-04-14T08:35:01.253Z,48.85
2019-04-14T08:37:28.246Z,48.21
2019-04-14T08:39:55.273Z,49.54
2019-04-14T08:42:24.586Z,49.54
2019-04-14T08:44:53.273Z,50.28
2019-04-14T08:47:24.916Z,48.95
2019-04-14T08:49:57.063Z,49.50
2019-04-14T08:52:32.160Z,49.80
2019-04-14T08:55:06.818Z,49.56
2019-04-14T08:57:53.049Z,46.46
2019-04-14T09:00:31.429Z,46.57
2019-04-14T09:03:06.381Z,48.82
2019-04-14T09:05:38.597Z,48.22
2019-04-14T09:08:10.504Z,47.84
2019-04-14T09:10:39.446Z,46.81
2019-04-14T09:13:06.419Z,48.42
2019-04-14T09:15:33.366Z,45.36
2019-04-14T09:18:00.551Z,45.12
2019-04-14T09:20:27.502Z,46.10
2019-04-14T09:22:54.541Z,45.00
2019-04-14T09:25:21.464Z,42.33
2019-04-14T09:27:48.786Z,40.68
2019-04-14T09:30:16.219Z,41.43
2019-04-14T09:32:43.119Z,40.83
2019-04-14T09:52:05.433Z,28.74
2019-04-14T09:54:32.887Z,20.55
2019-04-14T09:56:59.886Z,27.42
2019-04-14T09:59:30.072Z,30.92
2019-04-14T10:01:57.115Z,33.13
2019-04-14T10:04:24.099Z,34.71
2019-04-14T10:06:51.531Z,38.06
2019-04-14T10:09:18.518Z,35.40
2019-04-14T10:11:48.909Z,36.59
2019-04-14T10:14:14.309Z,37.58
2019-04-14T10:16:41.251Z,36.98
2019-04-14T10:19:08.155Z,35.89
2019-04-14T10:21:35.010Z,33.37
2019-04-14T10:24:02.668Z,38.46
2019-04-14T10:26:29.565Z,34.57
2019-04-14T10:28:56.489Z,36.32
2019-04-14T10:31:23.366Z,35.71
2019-04-14T10:33:52.376Z,34.30
2019-04-14T10:36:19.482Z,34.45
2019-04-14T11:08:14.936Z,24.87
2019-04-14T11:10:41.952Z,24.07
2019-04-14T11:13:08.873Z,28.85
2019-04-14T11:15:35.755Z,31.47
2019-04-14T11:18:03.205Z,31.03
2019-04-14T11:20:30.196Z,32.10
2019-04-14T11:23:03.128Z,31.94
2019-04-14T11:25:25.891Z,32.68
2019-04-14T11:27:52.923Z,30.21
2019-04-14T11:30:21.703Z,31.02
2019-04-14T11:32:51.069Z,30.50
2019-04-14T11:35:19.751Z,30.78
2019-04-14T11:37:48.927Z,29.73
2019-04-14T11:40:17.783Z,31.81
2019-04-14T11:42:52.159Z,30.13
2019-04-14T11:45:13.647Z,29.77
2019-04-14T11:47:41.142Z,29.53
2019-04-14T11:50:08.459Z,30.43
2019-04-14T11:52:36.094Z,31.01
2019-04-14T11:55:04.264Z,29.11
2019-04-14T11:57:31.206Z,28.93
2019-04-14T12:00:16.833Z,29.40
2019-04-14T12:02:49.134Z,28.49
2019-04-14T12:05:18.298Z,32.74
2019-04-14T12:07:49.928Z,28.96
2019-04-14T12:10:17.265Z,29.49
2019-04-14T12:12:44.182Z,29.19
2019-04-14T12:15:15.998Z,28.71
2019-04-14T12:17:40.072Z,29.09
2019-04-14T12:20:07.414Z,30.82
2019-04-14T12:22:34.441Z,29.77
2019-04-14T12:25:01.432Z,27.73
2019-04-14T12:27:28.287Z,27.67
2019-04-14T12:29:56.705Z,26.68
2019-04-14T12:32:24.310Z,29.58
2019-04-14T12:34:51.054Z,28.20
2019-04-14T12:37:18.600Z,30.26
2019-04-14T12:39:46.095Z,28.26
2019-04-14T12:42:30.270Z,28.32
2019-04-14T12:45:14.277Z,29.50
2019-04-14T12:47:58.208Z,29.43
2019-04-14T12:50:33.242Z,28.95
2019-04-14T12:53:00.903Z,29.65
2019-04-14T12:55:27.746Z,29.34
2019-04-14T12:57:56.661Z,27.20
2019-04-14T13:00:31.705Z,27.32
2019-04-14T13:02:58.622Z,27.42
2019-04-14T13:05:25.562Z,28.27
2019-04-14T13:07:52.551Z,28.53
2019-04-14T13:10:21.153Z,28.67
2019-04-14T13:12:48.120Z,28.26
2019-04-14T13:15:15.105Z,28.76
2019-04-14T13:17:41.971Z,27.66
2019-04-14T13:20:10.722Z,26.33
2019-04-14T13:22:37.752Z,27.28
2019-04-14T13:25:05.650Z,28.29
2019-04-14T13:27:33.179Z,28.48
2019-04-14T13:30:00.035Z,28.93
2019-04-14T13:32:35.776Z,27.89
2019-04-14T13:34:55.620Z,28.98
2019-04-14T13:37:22.710Z,28.37
2019-04-14T13:39:49.872Z,29.21
2019-04-14T13:42:16.768Z,29.02
2019-04-14T13:44:43.662Z,29.12
2019-04-14T13:47:10.793Z,28.54
2019-04-14T13:49:37.691Z,29.48
2019-04-14T13:52:04.693Z,28.28
2019-04-14T13:54:31.681Z,28.57
2019-04-14T13:56:58.548Z,30.28
2019-04-14T13:59:26.100Z,29.78
2019-04-14T14:01:53.145Z,30.28
2019-04-14T14:04:20.250Z,28.27
2019-04-14T14:06:47.130Z,30.24
2019-04-14T14:09:14.242Z,29.45
2019-04-14T14:11:59.389Z,30.41
2019-04-14T14:14:46.289Z,28.73
2019-04-14T14:17:16.901Z,28.67
2019-04-14T14:19:54.610Z,28.19
2019-04-14T14:22:40.504Z,28.17
2019-04-14T14:25:16.874Z,28.77
2019-04-14T14:27:43.929Z,27.72
2019-04-14T14:30:14.358Z,28.48
2019-04-14T14:32:41.271Z,29.65
2019-04-14T14:35:08.215Z,28.30
2019-04-14T14:37:35.213Z,27.73
2019-04-14T14:40:03.429Z,28.45
2019-04-14T14:42:30.405Z,28.60
2019-04-14T14:45:00.084Z,27.77
2019-04-14T14:47:28.835Z,27.37
2019-04-14T14:49:58.988Z,29.01
2019-04-14T14:52:25.962Z,28.02
2019-04-14T14:54:52.859Z,29.29
2019-04-14T14:57:19.819Z,28.39
2019-04-14T14:59:46.707Z,28.47
2019-04-14T15:02:14.080Z,27.92
2019-04-14T15:04:40.955Z,27.49
2019-04-14T15:07:08.036Z,30.20
2019-04-14T15:09:35.066Z,28.83
2019-04-14T15:13:32.813Z,29.39
2019-04-14T15:16:00.040Z,28.67
2019-04-14T15:18:26.939Z,29.03
2019-04-14T15:20:54.167Z,28.45
2019-04-14T15:23:25.323Z,27.80
2019-04-14T15:25:50.007Z,26.48
2019-04-14T15:28:17.017Z,26.60
2019-04-14T15:30:43.888Z,27.15
2019-04-14T15:33:10.665Z,28.32
2019-04-14T15:35:37.817Z,28.66
2019-04-14T15:38:04.933Z,29.58
2019-04-14T15:40:31.878Z,29.19
2019-04-14T15:42:58.911Z,27.30
2019-04-14T15:45:25.776Z,27.58
2019-04-14T15:47:53.771Z,27.46
2019-04-14T15:50:20.775Z,27.70
2019-04-14T15:52:47.847Z,27.45
2019-04-14T15:55:16.521Z,27.08
2019-04-14T15:57:51.566Z,26.89
2019-04-14T16:00:29.626Z,27.04
2019-04-14T16:03:15.297Z,27.98
2019-04-14T16:06:00.674Z,27.81
2019-04-14T16:08:29.640Z,29.01
2019-04-14T16:10:58.774Z,30.25
2019-04-14T16:13:44.177Z,29.25
2019-04-14T16:16:19.518Z,30.04
2019-04-14T16:18:53.592Z,30.08
2019-04-14T16:21:20.505Z,30.27
2019-04-14T16:23:50.732Z,30.36
2019-04-14T16:26:21.160Z,30.06
2019-04-14T16:29:05.002Z,29.52
2019-04-14T16:31:51.465Z,30.38
2019-04-14T16:34:20.218Z,30.34
2019-04-14T16:36:49.108Z,29.69
2019-04-14T16:39:15.967Z,30.21
2019-04-14T16:41:43.233Z,28.77
2019-04-14T16:44:10.377Z,28.11
2019-04-14T16:46:37.130Z,28.24
2019-04-14T16:49:04.113Z,27.38
2019-04-14T16:51:33.130Z,26.62
2019-04-14T16:54:03.177Z,26.97
2019-04-14T16:56:49.463Z,27.09
2019-04-14T16:59:16.482Z,27.00
2019-04-14T17:01:44.207Z,27.35
2019-04-14T17:04:11.124Z,27.43
2019-04-14T17:06:38.183Z,27.88
2019-04-14T17:09:06.458Z,27.76
2019-04-14T17:11:33.317Z,27.79
2019-04-14T17:14:04.693Z,28.00
2019-04-14T17:16:33.765Z,28.40
2019-04-14T17:19:02.925Z,27.96
2019-04-14T17:21:40.705Z,28.39
2019-04-14T17:24:16.412Z,28.31
2019-04-14T17:26:56.205Z,28.64
2019-04-14T17:29:31.176Z,29.22
2019-04-14T17:32:16.571Z,29.09
2019-04-14T17:35:02.232Z,29.48
2019-04-14T17:37:43.376Z,29.69
2019-04-14T17:40:12.839Z,29.85
2019-04-14T17:42:48.238Z,29.68
2019-04-14T17:45:16.860Z,29.88
2019-04-14T17:47:49.294Z,30.11
2019-04-14T17:50:24.625Z,30.13
2019-04-14T17:53:03.068Z,30.11
2019-04-14T17:55:32.231Z,30.49
2019-04-14T17:58:01.773Z,30.55
2019-04-14T18:00:30.846Z,30.48
2019-04-14T18:03:00.023Z,30.46
2019-04-14T18:05:29.313Z,30.58
2019-04-14T18:07:58.201Z,30.84
2019-04-14T18:10:30.050Z,30.55
2019-04-14T18:13:07.132Z,31.08
2019-04-14T18:15:51.437Z,31.24
2019-04-14T18:18:39.263Z,31.50
2019-04-14T18:21:08.055Z,31.58
2019-04-14T18:23:35.079Z,31.74
2019-04-14T18:26:02.151Z,31.96
2019-04-14T18:28:43.099Z,31.62
2019-04-14T18:31:12.357Z,31.72
2019-04-14T18:33:47.286Z,32.24
2019-04-14T18:36:19.167Z,32.16
2019-04-14T18:39:05.282Z,32.37
2019-04-14T18:41:40.296Z,32.52
2019-04-14T18:44:09.186Z,32.75
2019-04-14T18:46:46.967Z,33.09
2019-04-14T18:49:18.603Z,32.17
2019-04-14T18:51:54.184Z,33.47
2019-04-14T18:54:25.911Z,32.94
2019-04-14T18:56:57.657Z,32.74
2019-04-14T18:59:29.369Z,33.67
2019-04-14T19:01:57.067Z,33.65
2019-04-14T19:04:24.296Z,33.64
2019-04-14T19:06:51.389Z,33.56
2019-04-14T19:09:18.850Z,32.72
2019-04-14T19:11:51.073Z,33.69
2019-04-14T19:14:20.040Z,34.25
2019-04-14T19:16:57.925Z,35.08
2019-04-14T19:19:24.962Z,34.93
2019-04-14T19:21:51.944Z,34.74
2019-04-14T19:24:19.070Z,35.56
2019-04-14T19:26:46.226Z,34.75
2019-04-14T19:29:13.236Z,35.33
2019-04-14T19:31:40.456Z,35.31
2019-04-14T19:34:07.464Z,35.57
2019-04-14T19:36:34.315Z,35.06
2019-04-14T19:39:01.383Z,35.78
2019-04-14T19:41:28.414Z,35.72
2019-04-14T19:43:55.297Z,35.99
2019-04-14T19:46:22.297Z,36.20
2019-04-14T19:48:49.201Z,36.81
2019-04-14T19:51:16.044Z,36.42
2019-04-14T19:53:43.101Z,36.40
2019-04-14T19:56:10.079Z,37.54
2019-04-14T19:58:37.177Z,37.30
2019-04-14T20:01:07.155Z,36.67
2019-04-14T20:03:34.112Z,36.34
2019-04-14T20:06:01.016Z,36.47
2019-04-14T20:08:31.065Z,36.50
2019-04-14T20:10:58.278Z,37.36
2019-04-14T20:13:27.408Z,36.71
2019-04-14T20:15:57.834Z,37.22
2019-04-14T20:18:43.345Z,37.01
2019-04-14T20:21:15.353Z,36.98
2019-04-14T20:23:47.770Z,36.57
2019-04-14T20:26:22.840Z,37.17
2019-04-14T20:28:52.073Z,36.57
2019-04-14T20:31:33.043Z,36.28
2019-04-14T20:34:00.258Z,35.76
2019-04-14T20:36:27.345Z,36.53
2019-04-14T20:38:54.435Z,35.59
2019-04-14T20:41:21.206Z,36.44
2019-04-14T20:43:48.117Z,36.75
2019-04-14T20:46:15.242Z,36.67
2019-04-14T20:48:42.266Z,35.48
2019-04-14T20:51:10.255Z,35.14
2019-04-14T20:53:37.282Z,35.77
2019-04-14T20:56:06.428Z,35.86
2019-04-14T20:58:33.624Z,36.26
2019-04-14T21:01:01.311Z,36.61
2019-04-14T21:03:42.703Z,35.82
2019-04-14T21:06:27.343Z,36.75
2019-04-14T21:08:58.722Z,36.45
2019-04-14T21:11:29.438Z,36.36
2019-04-14T21:14:01.057Z,37.35
2019-04-14T21:16:32.994Z,37.73
2019-04-14T21:19:04.622Z,38.15
2019-04-14T21:21:37.037Z,38.42
2019-04-14T21:24:05.998Z,37.83
2019-04-14T21:26:51.440Z,38.71
2019-04-14T21:29:26.537Z,38.77
2019-04-14T21:31:55.260Z,37.88
2019-04-14T21:34:40.442Z,38.15
2019-04-14T21:37:26.064Z,39.04
2019-04-14T21:40:11.461Z,38.56
2019-04-14T21:42:39.687Z,39.41
2019-04-14T21:45:07.289Z,38.90
2019-04-14T21:47:34.114Z,39.23
2019-04-14T21:50:01.308Z,39.74
2019-04-14T21:52:33.218Z,40.58
2019-04-14T21:55:02.362Z,40.73
2019-04-14T21:57:34.061Z,40.88
2019-04-14T22:00:19.650Z,40.57
2019-04-14T22:03:05.199Z,40.63
2019-04-14T22:05:44.818Z,40.37
2019-04-14T22:08:25.212Z,40.63
2019-04-14T22:11:07.500Z,39.63
2019-04-14T22:13:34.924Z,40.08
2019-04-14T22:16:02.060Z,40.42
2019-04-14T22:18:29.069Z,40.10
2019-04-14T22:20:57.347Z,39.58
2019-04-14T22:23:24.443Z,40.35
2019-04-14T22:25:51.461Z,40.13
2019-04-14T22:28:18.344Z,39.58
2019-04-14T22:30:45.346Z,39.29
2019-04-14T22:33:12.167Z,40.36
2019-04-14T22:35:39.274Z,38.93
2019-04-14T22:38:06.313Z,40.09
2019-04-14T22:40:33.249Z,41.27
2019-04-14T22:43:00.330Z,39.98
2019-04-14T22:45:28.537Z,41.33
2019-04-14T22:47:55.429Z,40.83
2019-04-14T22:50:22.644Z,42.01
2019-04-14T22:52:49.707Z,41.52
2019-04-14T22:55:16.548Z,41.61
2019-04-14T22:57:43.426Z,41.27
2019-04-14T23:00:18.798Z,40.85
2019-04-14T23:02:57.001Z,40.91
2019-04-14T23:05:26.021Z,42.39
2019-04-14T23:07:55.220Z,41.19
2019-04-14T23:10:41.160Z,40.85
2019-04-14T23:13:09.810Z,41.14
2019-04-14T23:15:55.423Z,42.48
2019-04-14T23:18:24.454Z,42.37
2019-04-14T23:20:53.358Z,41.46
2019-04-14T23:23:37.311Z,42.84
2019-04-14T23:26:04.862Z,42.80
2019-04-14T23:28:31.824Z,43.54
2019-04-14T23:31:01.708Z,43.30
2019-04-14T23:33:28.964Z,43.43
2019-04-14T23:35:55.834Z,44.42
2019-04-14T23:38:22.886Z,44.84
2019-04-14T23:40:49.876Z,44.57
2019-04-14T23:43:16.763Z,45.36
2019-04-14T23:45:43.780Z,45.41
2019-04-14T23:48:10.941Z,45.09
2019-04-14T23:50:37.728Z,45.66
2019-04-14T23:53:04.641Z,46.84
2019-04-14T23:55:31.697Z,46.39
2019-04-14T23:57:58.581Z,45.47
